sensor_id;sensor_type;location;lat;lon;timestamp;P1;durP1;ratioP1;P2;durP2;ratioP2
41446;SDS011;27185;52.040;4.490;2023-08-31T00:00:25;4.18;;;1.00;;
41446;SDS011;27185;52.040;4.490;2023-08-31T00:03:12;2.08;;;0.90;;
41446;SDS011;27185;52.040;4.490;2023-08-31T00:06:01;5.10;;;1.40;;
41446;SDS011;27185;52.040;4.490;2023-08-31T00:08:48;5.10;;;1.50;;
41446;SDS011;27185;52.040;4.490;2023-08-31T00:11:34;2.40;;;0.80;;
41446;SDS011;27185;52.040;4.490;2023-08-31T00:14:23;2.33;;;0.82;;
41446;SDS011;27185;52.040;4.490;2023-08-31T00:17:09;3.33;;;0.63;;
41446;SDS011;27185;52.040;4.490;2023-08-31T00:19:56;2.53;;;0.77;;
41446;SDS011;27185;52.040;4.490;2023-08-31T00:22:42;2.13;;;0.70;;
41446;SDS011;27185;52.040;4.490;2023-08-31T00:25:27;3.60;;;0.70;;
41446;SDS011;27185;52.040;4.490;2023-08-31T00:28:14;3.58;;;0.98;;
41446;SDS011;27185;52.040;4.490;2023-08-31T00:31:01;5.32;;;0.60;;
41446;SDS011;27185;52.040;4.490;2023-08-31T00:33:49;7.00;;;0.60;;
41446;SDS011;27185;52.040;4.490;2023-08-31T00:36:35;1.80;;;0.40;;
41446;SDS011;27185;52.040;4.490;2023-08-31T00:39:20;2.50;;;0.40;;
41446;SDS011;27185;52.040;4.490;2023-08-31T00:42:06;2.40;;;0.60;;
41446;SDS011;27185;52.040;4.490;2023-08-31T00:44:52;2.75;;;0.60;;
41446;SDS011;27185;52.040;4.490;2023-08-31T00:47:38;1.42;;;0.43;;
41446;SDS011;27185;52.040;4.490;2023-08-31T00:50:23;1.75;;;0.52;;
41446;SDS011;27185;52.040;4.490;2023-08-31T00:53:09;1.33;;;0.40;;
41446;SDS011;27185;52.040;4.490;2023-08-31T00:55:55;1.35;;;0.40;;
41446;SDS011;27185;52.040;4.490;2023-08-31T00:58:42;1.30;;;0.40;;
41446;SDS011;27185;52.040;4.490;2023-08-31T01:01:39;1.65;;;0.40;;
41446;SDS011;27185;52.040;4.490;2023-08-31T01:04:34;2.15;;;0.45;;
41446;SDS011;27185;52.040;4.490;2023-08-31T01:08:07;2.35;;;0.50;;
41446;SDS011;27185;52.040;4.490;2023-08-31T01:10:58;3.03;;;0.73;;
41446;SDS011;27185;52.040;4.490;2023-08-31T01:13:54;1.15;;;0.30;;
41446;SDS011;27185;52.040;4.490;2023-08-31T01:16:54;2.42;;;0.88;;
41446;SDS011;27185;52.040;4.490;2023-08-31T01:19:50;3.78;;;0.70;;
41446;SDS011;27185;52.040;4.490;2023-08-31T01:22:50;2.00;;;0.65;;
41446;SDS011;27185;52.040;4.490;2023-08-31T01:25:42;3.25;;;0.60;;
41446;SDS011;27185;52.040;4.490;2023-08-31T01:28:29;5.40;;;1.05;;
41446;SDS011;27185;52.040;4.490;2023-08-31T01:31:15;3.28;;;0.40;;
41446;SDS011;27185;52.040;4.490;2023-08-31T01:34:01;1.80;;;0.60;;
41446;SDS011;27185;52.040;4.490;2023-08-31T01:36:48;3.08;;;0.52;;
41446;SDS011;27185;52.040;4.490;2023-08-31T01:39:42;2.75;;;0.68;;
41446;SDS011;27185;52.040;4.490;2023-08-31T01:42:55;2.35;;;0.60;;
41446;SDS011;27185;52.040;4.490;2023-08-31T01:45:41;2.65;;;0.40;;
41446;SDS011;27185;52.040;4.490;2023-08-31T01:48:27;3.38;;;0.68;;
41446;SDS011;27185;52.040;4.490;2023-08-31T01:51:13;1.55;;;0.50;;
41446;SDS011;27185;52.040;4.490;2023-08-31T01:53:59;1.73;;;0.50;;
41446;SDS011;27185;52.040;4.490;2023-08-31T01:56:44;3.92;;;0.45;;
41446;SDS011;27185;52.040;4.490;2023-08-31T01:59:30;1.20;;;0.60;;
41446;SDS011;27185;52.040;4.490;2023-08-31T02:02:15;3.10;;;0.60;;
41446;SDS011;27185;52.040;4.490;2023-08-31T02:05:01;4.13;;;0.57;;
41446;SDS011;27185;52.040;4.490;2023-08-31T02:10:34;2.22;;;0.60;;
41446;SDS011;27185;52.040;4.490;2023-08-31T02:13:20;1.60;;;0.47;;
41446;SDS011;27185;52.040;4.490;2023-08-31T02:16:05;1.55;;;0.52;;
41446;SDS011;27185;52.040;4.490;2023-08-31T02:18:51;2.03;;;0.70;;
41446;SDS011;27185;52.040;4.490;2023-08-31T02:21:36;4.32;;;0.70;;
41446;SDS011;27185;52.040;4.490;2023-08-31T02:24:23;1.90;;;0.70;;
41446;SDS011;27185;52.040;4.490;2023-08-31T02:27:08;1.27;;;0.70;;
41446;SDS011;27185;52.040;4.490;2023-08-31T02:29:54;1.92;;;0.80;;
41446;SDS011;27185;52.040;4.490;2023-08-31T02:32:40;2.80;;;0.90;;
41446;SDS011;27185;52.040;4.490;2023-08-31T02:35:26;2.72;;;0.80;;
41446;SDS011;27185;52.040;4.490;2023-08-31T02:38:11;3.67;;;0.90;;
41446;SDS011;27185;52.040;4.490;2023-08-31T02:40:57;3.28;;;0.98;;
41446;SDS011;27185;52.040;4.490;2023-08-31T02:43:42;2.58;;;1.00;;
41446;SDS011;27185;52.040;4.490;2023-08-31T02:46:28;5.47;;;1.05;;
41446;SDS011;27185;52.040;4.490;2023-08-31T02:49:13;4.65;;;1.42;;
41446;SDS011;27185;52.040;4.490;2023-08-31T02:51:59;4.35;;;1.00;;
41446;SDS011;27185;52.040;4.490;2023-08-31T02:54:45;2.45;;;0.93;;
41446;SDS011;27185;52.040;4.490;2023-08-31T02:57:31;4.18;;;1.10;;
41446;SDS011;27185;52.040;4.490;2023-08-31T03:00:16;2.65;;;1.40;;
41446;SDS011;27185;52.040;4.490;2023-08-31T03:03:06;5.82;;;1.50;;
41446;SDS011;27185;52.040;4.490;2023-08-31T03:05:54;5.75;;;1.25;;
41446;SDS011;27185;52.040;4.490;2023-08-31T03:08:41;3.67;;;1.10;;
41446;SDS011;27185;52.040;4.490;2023-08-31T03:11:26;3.40;;;1.40;;
41446;SDS011;27185;52.040;4.490;2023-08-31T03:14:12;3.78;;;1.27;;
41446;SDS011;27185;52.040;4.490;2023-08-31T03:16:58;4.10;;;1.30;;
41446;SDS011;27185;52.040;4.490;2023-08-31T03:19:43;4.32;;;1.40;;
41446;SDS011;27185;52.040;4.490;2023-08-31T03:22:29;4.20;;;1.17;;
41446;SDS011;27185;52.040;4.490;2023-08-31T03:25:15;2.95;;;1.15;;
41446;SDS011;27185;52.040;4.490;2023-08-31T03:28:01;2.78;;;1.17;;
41446;SDS011;27185;52.040;4.490;2023-08-31T03:30:53;3.95;;;1.20;;
41446;SDS011;27185;52.040;4.490;2023-08-31T03:33:42;2.50;;;0.90;;
41446;SDS011;27185;52.040;4.490;2023-08-31T03:36:27;4.13;;;1.33;;
41446;SDS011;27185;52.040;4.490;2023-08-31T03:39:13;1.80;;;1.00;;
41446;SDS011;27185;52.040;4.490;2023-08-31T03:41:59;4.43;;;1.30;;
41446;SDS011;27185;52.040;4.490;2023-08-31T03:44:45;2.22;;;0.90;;
41446;SDS011;27185;52.040;4.490;2023-08-31T03:47:30;1.83;;;0.82;;
41446;SDS011;27185;52.040;4.490;2023-08-31T03:50:16;2.65;;;1.00;;
41446;SDS011;27185;52.040;4.490;2023-08-31T03:53:01;2.05;;;0.60;;
41446;SDS011;27185;52.040;4.490;2023-08-31T03:55:48;2.72;;;0.68;;
41446;SDS011;27185;52.040;4.490;2023-08-31T03:58:33;2.80;;;0.80;;
41446;SDS011;27185;52.040;4.490;2023-08-31T04:01:19;2.95;;;0.63;;
41446;SDS011;27185;52.040;4.490;2023-08-31T04:04:05;5.40;;;0.75;;
41446;SDS011;27185;52.040;4.490;2023-08-31T04:06:51;4.97;;;0.70;;
41446;SDS011;27185;52.040;4.490;2023-08-31T04:09:36;1.65;;;0.57;;
41446;SDS011;27185;52.040;4.490;2023-08-31T04:12:22;1.63;;;0.55;;
41446;SDS011;27185;52.040;4.490;2023-08-31T04:15:07;2.63;;;0.70;;
41446;SDS011;27185;52.040;4.490;2023-08-31T04:17:54;2.35;;;0.52;;
41446;SDS011;27185;52.040;4.490;2023-08-31T04:20:45;2.25;;;0.60;;
41446;SDS011;27185;52.040;4.490;2023-08-31T04:23:38;3.67;;;0.50;;
41446;SDS011;27185;52.040;4.490;2023-08-31T04:26:23;2.13;;;0.63;;
41446;SDS011;27185;52.040;4.490;2023-08-31T04:29:09;1.92;;;0.57;;
41446;SDS011;27185;52.040;4.490;2023-08-31T04:31:55;5.35;;;0.68;;
41446;SDS011;27185;52.040;4.490;2023-08-31T04:34:40;1.85;;;0.60;;
41446;SDS011;27185;52.040;4.490;2023-08-31T04:37:26;3.33;;;0.60;;
41446;SDS011;27185;52.040;4.490;2023-08-31T04:40:11;2.78;;;0.55;;
41446;SDS011;27185;52.040;4.490;2023-08-31T04:42:57;3.63;;;0.82;;
41446;SDS011;27185;52.040;4.490;2023-08-31T04:45:43;1.85;;;0.40;;
41446;SDS011;27185;52.040;4.490;2023-08-31T04:48:28;1.40;;;0.40;;
41446;SDS011;27185;52.040;4.490;2023-08-31T04:51:34;4.38;;;0.80;;
41446;SDS011;27185;52.040;4.490;2023-08-31T04:57:07;2.45;;;0.60;;
41446;SDS011;27185;52.040;4.490;2023-08-31T04:59:53;2.13;;;0.50;;
41446;SDS011;27185;52.040;4.490;2023-08-31T05:02:39;7.32;;;0.65;;
41446;SDS011;27185;52.040;4.490;2023-08-31T05:05:24;1.77;;;0.40;;
41446;SDS011;27185;52.040;4.490;2023-08-31T05:08:10;1.38;;;0.50;;
41446;SDS011;27185;52.040;4.490;2023-08-31T05:10:56;3.53;;;0.60;;
41446;SDS011;27185;52.040;4.490;2023-08-31T05:13:41;1.92;;;0.70;;
41446;SDS011;27185;52.040;4.490;2023-08-31T05:16:27;2.53;;;0.90;;
41446;SDS011;27185;52.040;4.490;2023-08-31T05:19:12;4.00;;;0.63;;
41446;SDS011;27185;52.040;4.490;2023-08-31T05:21:58;3.20;;;0.50;;
41446;SDS011;27185;52.040;4.490;2023-08-31T05:24:44;3.05;;;0.60;;
41446;SDS011;27185;52.040;4.490;2023-08-31T05:27:29;2.08;;;0.60;;
41446;SDS011;27185;52.040;4.490;2023-08-31T05:30:15;4.97;;;0.60;;
41446;SDS011;27185;52.040;4.490;2023-08-31T05:33:02;3.17;;;0.60;;
41446;SDS011;27185;52.040;4.490;2023-08-31T05:35:48;2.67;;;0.55;;
41446;SDS011;27185;52.040;4.490;2023-08-31T05:38:34;2.38;;;0.55;;
41446;SDS011;27185;52.040;4.490;2023-08-31T05:41:19;2.28;;;0.60;;
41446;SDS011;27185;52.040;4.490;2023-08-31T05:44:06;4.03;;;0.40;;
41446;SDS011;27185;52.040;4.490;2023-08-31T05:46:51;4.05;;;0.50;;
41446;SDS011;27185;52.040;4.490;2023-08-31T05:49:37;4.18;;;0.70;;
41446;SDS011;27185;52.040;4.490;2023-08-31T05:52:24;2.72;;;0.50;;
41446;SDS011;27185;52.040;4.490;2023-08-31T05:55:09;2.55;;;0.45;;
41446;SDS011;27185;52.040;4.490;2023-08-31T05:57:55;4.07;;;0.60;;
41446;SDS011;27185;52.040;4.490;2023-08-31T06:00:41;2.10;;;0.43;;
41446;SDS011;27185;52.040;4.490;2023-08-31T06:03:26;2.10;;;0.52;;
41446;SDS011;27185;52.040;4.490;2023-08-31T06:06:12;2.03;;;0.47;;
41446;SDS011;27185;52.040;4.490;2023-08-31T06:08:58;2.88;;;0.57;;
41446;SDS011;27185;52.040;4.490;2023-08-31T06:11:44;2.58;;;0.60;;
41446;SDS011;27185;52.040;4.490;2023-08-31T06:14:29;5.57;;;0.55;;
41446;SDS011;27185;52.040;4.490;2023-08-31T06:17:15;1.67;;;0.50;;
41446;SDS011;27185;52.040;4.490;2023-08-31T06:20:01;3.85;;;0.70;;
41446;SDS011;27185;52.040;4.490;2023-08-31T06:22:47;2.08;;;0.47;;
41446;SDS011;27185;52.040;4.490;2023-08-31T06:25:32;2.03;;;0.50;;
41446;SDS011;27185;52.040;4.490;2023-08-31T06:28:18;3.83;;;0.50;;
41446;SDS011;27185;52.040;4.490;2023-08-31T06:31:03;2.47;;;0.32;;
41446;SDS011;27185;52.040;4.490;2023-08-31T06:33:49;2.90;;;0.40;;
41446;SDS011;27185;52.040;4.490;2023-08-31T06:36:34;1.83;;;0.40;;
41446;SDS011;27185;52.040;4.490;2023-08-31T06:39:20;3.45;;;0.50;;
41446;SDS011;27185;52.040;4.490;2023-08-31T06:42:06;3.42;;;0.43;;
41446;SDS011;27185;52.040;4.490;2023-08-31T06:44:51;3.13;;;0.50;;
41446;SDS011;27185;52.040;4.490;2023-08-31T06:47:37;2.17;;;0.50;;
41446;SDS011;27185;52.040;4.490;2023-08-31T06:50:23;2.35;;;0.60;;
41446;SDS011;27185;52.040;4.490;2023-08-31T06:53:08;3.08;;;0.50;;
41446;SDS011;27185;52.040;4.490;2023-08-31T06:55:54;2.13;;;0.70;;
41446;SDS011;27185;52.040;4.490;2023-08-31T06:58:39;2.65;;;0.40;;
41446;SDS011;27185;52.040;4.490;2023-08-31T07:01:25;3.08;;;0.55;;
41446;SDS011;27185;52.040;4.490;2023-08-31T07:04:12;10.32;;;0.60;;
41446;SDS011;27185;52.040;4.490;2023-08-31T07:06:58;1.38;;;0.35;;
41446;SDS011;27185;52.040;4.490;2023-08-31T07:09:44;2.47;;;0.40;;
41446;SDS011;27185;52.040;4.490;2023-08-31T07:12:32;2.25;;;0.57;;
41446;SDS011;27185;52.040;4.490;2023-08-31T07:15:17;4.45;;;0.50;;
41446;SDS011;27185;52.040;4.490;2023-08-31T07:18:03;1.65;;;0.40;;
41446;SDS011;27185;52.040;4.490;2023-08-31T07:20:49;2.75;;;0.40;;
41446;SDS011;27185;52.040;4.490;2023-08-31T07:23:34;2.55;;;0.40;;
41446;SDS011;27185;52.040;4.490;2023-08-31T07:26:20;2.67;;;0.43;;
41446;SDS011;27185;52.040;4.490;2023-08-31T07:29:06;3.63;;;0.40;;
41446;SDS011;27185;52.040;4.490;2023-08-31T07:31:52;4.75;;;0.40;;
41446;SDS011;27185;52.040;4.490;2023-08-31T07:34:37;2.60;;;0.60;;
41446;SDS011;27185;52.040;4.490;2023-08-31T07:37:23;3.53;;;0.50;;
41446;SDS011;27185;52.040;4.490;2023-08-31T07:40:09;2.33;;;0.35;;
41446;SDS011;27185;52.040;4.490;2023-08-31T07:42:55;9.45;;;0.93;;
41446;SDS011;27185;52.040;4.490;2023-08-31T07:45:40;4.80;;;0.50;;
41446;SDS011;27185;52.040;4.490;2023-08-31T07:48:26;1.23;;;0.60;;
41446;SDS011;27185;52.040;4.490;2023-08-31T07:51:11;4.15;;;0.40;;
41446;SDS011;27185;52.040;4.490;2023-08-31T07:53:57;2.25;;;0.40;;
41446;SDS011;27185;52.040;4.490;2023-08-31T07:56:44;1.85;;;0.38;;
41446;SDS011;27185;52.040;4.490;2023-08-31T07:59:30;2.78;;;0.70;;
41446;SDS011;27185;52.040;4.490;2023-08-31T08:02:16;6.65;;;0.77;;
41446;SDS011;27185;52.040;4.490;2023-08-31T08:05:01;3.20;;;0.50;;
41446;SDS011;27185;52.040;4.490;2023-08-31T08:07:47;2.35;;;1.08;;
41446;SDS011;27185;52.040;4.490;2023-08-31T08:10:33;3.35;;;0.68;;
41446;SDS011;27185;52.040;4.490;2023-08-31T08:13:19;3.10;;;0.50;;
41446;SDS011;27185;52.040;4.490;2023-08-31T08:16:04;3.83;;;0.50;;
41446;SDS011;27185;52.040;4.490;2023-08-31T08:18:50;4.20;;;0.52;;
41446;SDS011;27185;52.040;4.490;2023-08-31T08:21:36;3.25;;;0.50;;
41446;SDS011;27185;52.040;4.490;2023-08-31T08:24:22;4.78;;;0.52;;
41446;SDS011;27185;52.040;4.490;2023-08-31T08:27:07;2.85;;;0.60;;
41446;SDS011;27185;52.040;4.490;2023-08-31T08:29:53;3.97;;;0.60;;
41446;SDS011;27185;52.040;4.490;2023-08-31T08:32:38;4.15;;;0.50;;
41446;SDS011;27185;52.040;4.490;2023-08-31T08:35:24;2.72;;;0.50;;
41446;SDS011;27185;52.040;4.490;2023-08-31T08:38:10;3.58;;;0.45;;
41446;SDS011;27185;52.040;4.490;2023-08-31T08:40:56;1.70;;;0.55;;
41446;SDS011;27185;52.040;4.490;2023-08-31T08:43:43;5.00;;;0.47;;
41446;SDS011;27185;52.040;4.490;2023-08-31T08:46:31;1.90;;;0.47;;
41446;SDS011;27185;52.040;4.490;2023-08-31T08:49:21;2.33;;;0.40;;
41446;SDS011;27185;52.040;4.490;2023-08-31T08:52:08;2.22;;;0.30;;
41446;SDS011;27185;52.040;4.490;2023-08-31T08:54:54;1.77;;;0.50;;
41446;SDS011;27185;52.040;4.490;2023-08-31T08:57:41;2.60;;;0.40;;
41446;SDS011;27185;52.040;4.490;2023-08-31T09:00:27;3.40;;;0.75;;
41446;SDS011;27185;52.040;4.490;2023-08-31T09:03:12;2.88;;;0.50;;
41446;SDS011;27185;52.040;4.490;2023-08-31T09:05:59;1.55;;;0.40;;
41446;SDS011;27185;52.040;4.490;2023-08-31T09:08:52;2.15;;;0.50;;
41446;SDS011;27185;52.040;4.490;2023-08-31T09:11:41;2.03;;;0.50;;
41446;SDS011;27185;52.040;4.490;2023-08-31T09:14:27;2.20;;;0.40;;
41446;SDS011;27185;52.040;4.490;2023-08-31T09:17:12;4.10;;;0.77;;
41446;SDS011;27185;52.040;4.490;2023-08-31T09:19:59;3.92;;;0.40;;
41446;SDS011;27185;52.040;4.490;2023-08-31T09:22:45;1.67;;;0.40;;
41446;SDS011;27185;52.040;4.490;2023-08-31T09:25:35;1.70;;;0.50;;
41446;SDS011;27185;52.040;4.490;2023-08-31T09:28:28;2.05;;;0.40;;
41446;SDS011;27185;52.040;4.490;2023-08-31T09:31:14;3.13;;;0.43;;
41446;SDS011;27185;52.040;4.490;2023-08-31T09:34:00;1.30;;;0.32;;
41446;SDS011;27185;52.040;4.490;2023-08-31T09:36:46;2.00;;;0.45;;
41446;SDS011;27185;52.040;4.490;2023-08-31T09:39:38;2.35;;;0.40;;
41446;SDS011;27185;52.040;4.490;2023-08-31T09:42:32;1.70;;;0.50;;
41446;SDS011;27185;52.040;4.490;2023-08-31T09:45:29;1.83;;;0.40;;
41446;SDS011;27185;52.040;4.490;2023-08-31T09:48:19;2.05;;;0.32;;
41446;SDS011;27185;52.040;4.490;2023-08-31T09:51:04;4.13;;;0.85;;
41446;SDS011;27185;52.040;4.490;2023-08-31T09:53:50;2.45;;;0.70;;
41446;SDS011;27185;52.040;4.490;2023-08-31T09:56:44;1.42;;;0.30;;
41446;SDS011;27185;52.040;4.490;2023-08-31T09:59:32;1.30;;;0.30;;
41446;SDS011;27185;52.040;4.490;2023-08-31T10:02:19;2.97;;;0.40;;
41446;SDS011;27185;52.040;4.490;2023-08-31T10:05:05;0.95;;;0.30;;
41446;SDS011;27185;52.040;4.490;2023-08-31T10:07:51;2.03;;;0.40;;
41446;SDS011;27185;52.040;4.490;2023-08-31T10:10:37;2.88;;;0.50;;
41446;SDS011;27185;52.040;4.490;2023-08-31T10:13:23;2.33;;;0.50;;
41446;SDS011;27185;52.040;4.490;2023-08-31T10:16:10;3.08;;;0.38;;
41446;SDS011;27185;52.040;4.490;2023-08-31T10:18:56;2.17;;;0.38;;
41446;SDS011;27185;52.040;4.490;2023-08-31T10:21:42;2.95;;;0.47;;
41446;SDS011;27185;52.040;4.490;2023-08-31T10:27:46;1.85;;;0.40;;
41446;SDS011;27185;52.040;4.490;2023-08-31T10:30:35;1.98;;;0.45;;
41446;SDS011;27185;52.040;4.490;2023-08-31T10:33:21;2.22;;;0.40;;
41446;SDS011;27185;52.040;4.490;2023-08-31T10:41:41;2.00;;;0.50;;
41446;SDS011;27185;52.040;4.490;2023-08-31T10:44:36;5.45;;;0.30;;
41446;SDS011;27185;52.040;4.490;2023-08-31T10:47:22;2.95;;;0.30;;
41446;SDS011;27185;52.040;4.490;2023-08-31T10:50:27;1.85;;;0.40;;
41446;SDS011;27185;52.040;4.490;2023-08-31T10:53:13;2.55;;;0.38;;
41446;SDS011;27185;52.040;4.490;2023-08-31T10:55:58;3.35;;;0.38;;
41446;SDS011;27185;52.040;4.490;2023-08-31T10:58:57;1.60;;;0.30;;
41446;SDS011;27185;52.040;4.490;2023-08-31T11:01:57;2.22;;;0.28;;
41446;SDS011;27185;52.040;4.490;2023-08-31T11:07:50;1.50;;;0.30;;
41446;SDS011;27185;52.040;4.490;2023-08-31T11:13:23;4.35;;;0.50;;
41446;SDS011;27185;52.040;4.490;2023-08-31T11:16:09;1.65;;;0.40;;
41446;SDS011;27185;52.040;4.490;2023-08-31T11:18:54;2.45;;;0.40;;
41446;SDS011;27185;52.040;4.490;2023-08-31T11:21:40;4.15;;;0.60;;
41446;SDS011;27185;52.040;4.490;2023-08-31T11:24:25;2.83;;;0.50;;
41446;SDS011;27185;52.040;4.490;2023-08-31T11:27:11;2.13;;;0.40;;
41446;SDS011;27185;52.040;4.490;2023-08-31T11:29:57;1.52;;;0.30;;
41446;SDS011;27185;52.040;4.490;2023-08-31T11:32:46;1.85;;;0.40;;
41446;SDS011;27185;52.040;4.490;2023-08-31T11:35:36;2.42;;;0.50;;
41446;SDS011;27185;52.040;4.490;2023-08-31T11:38:24;2.40;;;0.40;;
41446;SDS011;27185;52.040;4.490;2023-08-31T11:41:11;2.20;;;0.55;;
41446;SDS011;27185;52.040;4.490;2023-08-31T11:43:57;3.03;;;0.40;;
41446;SDS011;27185;52.040;4.490;2023-08-31T11:46:43;3.30;;;0.47;;
41446;SDS011;27185;52.040;4.490;2023-08-31T11:49:33;1.23;;;0.45;;
41446;SDS011;27185;52.040;4.490;2023-08-31T11:52:19;3.45;;;0.65;;
41446;SDS011;27185;52.040;4.490;2023-08-31T11:55:09;2.58;;;0.40;;
41446;SDS011;27185;52.040;4.490;2023-08-31T11:57:57;3.17;;;0.40;;
41446;SDS011;27185;52.040;4.490;2023-08-31T12:00:43;2.13;;;0.50;;
41446;SDS011;27185;52.040;4.490;2023-08-31T12:03:36;3.88;;;0.55;;
41446;SDS011;27185;52.040;4.490;2023-08-31T12:06:28;3.00;;;0.70;;
41446;SDS011;27185;52.040;4.490;2023-08-31T12:09:13;1.63;;;0.47;;
41446;SDS011;27185;52.040;4.490;2023-08-31T12:11:59;2.42;;;0.77;;
41446;SDS011;27185;52.040;4.490;2023-08-31T12:14:52;2.88;;;0.32;;
41446;SDS011;27185;52.040;4.490;2023-08-31T12:17:38;2.58;;;0.52;;
41446;SDS011;27185;52.040;4.490;2023-08-31T12:20:30;1.45;;;0.50;;
41446;SDS011;27185;52.040;4.490;2023-08-31T12:23:16;2.88;;;0.52;;
41446;SDS011;27185;52.040;4.490;2023-08-31T12:26:05;1.57;;;0.40;;
41446;SDS011;27185;52.040;4.490;2023-08-31T12:28:52;3.03;;;0.60;;
41446;SDS011;27185;52.040;4.490;2023-08-31T12:31:38;2.60;;;0.50;;
41446;SDS011;27185;52.040;4.490;2023-08-31T12:34:24;1.88;;;0.40;;
41446;SDS011;27185;52.040;4.490;2023-08-31T12:37:11;1.83;;;0.63;;
41446;SDS011;27185;52.040;4.490;2023-08-31T12:39:56;2.85;;;0.70;;
41446;SDS011;27185;52.040;4.490;2023-08-31T12:42:43;4.55;;;0.70;;
41446;SDS011;27185;52.040;4.490;2023-08-31T12:45:28;3.00;;;0.52;;
41446;SDS011;27185;52.040;4.490;2023-08-31T12:48:14;2.28;;;0.50;;
41446;SDS011;27185;52.040;4.490;2023-08-31T12:51:00;1.80;;;0.50;;
41446;SDS011;27185;52.040;4.490;2023-08-31T12:53:45;4.55;;;0.60;;
41446;SDS011;27185;52.040;4.490;2023-08-31T12:56:31;2.92;;;0.50;;
41446;SDS011;27185;52.040;4.490;2023-08-31T12:59:17;2.80;;;0.40;;
41446;SDS011;27185;52.040;4.490;2023-08-31T13:02:03;1.65;;;0.40;;
41446;SDS011;27185;52.040;4.490;2023-08-31T13:04:52;3.35;;;0.55;;
41446;SDS011;27185;52.040;4.490;2023-08-31T13:07:37;3.63;;;0.50;;
41446;SDS011;27185;52.040;4.490;2023-08-31T13:10:23;2.25;;;0.50;;
41446;SDS011;27185;52.040;4.490;2023-08-31T13:13:09;1.92;;;0.65;;
41446;SDS011;27185;52.040;4.490;2023-08-31T13:15:54;0.85;;;0.40;;
41446;SDS011;27185;52.040;4.490;2023-08-31T13:18:40;3.13;;;0.35;;
41446;SDS011;27185;52.040;4.490;2023-08-31T13:21:26;2.75;;;0.50;;
41446;SDS011;27185;52.040;4.490;2023-08-31T13:24:11;1.58;;;0.40;;
41446;SDS011;27185;52.040;4.490;2023-08-31T13:26:57;2.53;;;0.40;;
41446;SDS011;27185;52.040;4.490;2023-08-31T13:29:43;2.55;;;0.50;;
41446;SDS011;27185;52.040;4.490;2023-08-31T13:32:29;2.08;;;0.30;;
41446;SDS011;27185;52.040;4.490;2023-08-31T13:35:14;2.03;;;0.50;;
41446;SDS011;27185;52.040;4.490;2023-08-31T13:38:00;2.38;;;0.50;;
41446;SDS011;27185;52.040;4.490;2023-08-31T13:40:48;3.70;;;0.50;;
41446;SDS011;27185;52.040;4.490;2023-08-31T13:43:38;3.08;;;0.50;;
41446;SDS011;27185;52.040;4.490;2023-08-31T13:46:24;3.10;;;0.40;;
41446;SDS011;27185;52.040;4.490;2023-08-31T13:49:09;2.75;;;0.50;;
41446;SDS011;27185;52.040;4.490;2023-08-31T13:51:55;2.53;;;0.60;;
41446;SDS011;27185;52.040;4.490;2023-08-31T13:54:41;2.30;;;0.40;;
41446;SDS011;27185;52.040;4.490;2023-08-31T13:57:27;4.15;;;0.40;;
41446;SDS011;27185;52.040;4.490;2023-08-31T14:00:12;1.70;;;0.40;;
41446;SDS011;27185;52.040;4.490;2023-08-31T14:02:58;1.70;;;0.35;;
41446;SDS011;27185;52.040;4.490;2023-08-31T14:05:48;2.30;;;0.45;;
41446;SDS011;27185;52.040;4.490;2023-08-31T14:08:34;1.63;;;0.30;;
41446;SDS011;27185;52.040;4.490;2023-08-31T14:11:20;2.35;;;0.40;;
41446;SDS011;27185;52.040;4.490;2023-08-31T14:14:06;1.65;;;0.40;;
41446;SDS011;27185;52.040;4.490;2023-08-31T14:16:55;1.50;;;0.40;;
41446;SDS011;27185;52.040;4.490;2023-08-31T14:19:41;2.72;;;0.40;;
41446;SDS011;27185;52.040;4.490;2023-08-31T14:22:26;6.07;;;0.70;;
41446;SDS011;27185;52.040;4.490;2023-08-31T14:25:13;4.82;;;0.55;;
41446;SDS011;27185;52.040;4.490;2023-08-31T14:27:59;3.47;;;0.50;;
41446;SDS011;27185;52.040;4.490;2023-08-31T14:30:45;1.33;;;0.40;;
41446;SDS011;27185;52.040;4.490;2023-08-31T14:33:30;2.28;;;0.40;;
41446;SDS011;27185;52.040;4.490;2023-08-31T14:36:16;3.50;;;0.45;;
41446;SDS011;27185;52.040;4.490;2023-08-31T14:39:02;2.00;;;0.40;;
41446;SDS011;27185;52.040;4.490;2023-08-31T14:41:47;3.60;;;0.40;;
41446;SDS011;27185;52.040;4.490;2023-08-31T14:44:33;2.55;;;0.50;;
41446;SDS011;27185;52.040;4.490;2023-08-31T14:47:19;7.03;;;0.52;;
41446;SDS011;27185;52.040;4.490;2023-08-31T14:50:05;4.65;;;0.50;;
41446;SDS011;27185;52.040;4.490;2023-08-31T14:52:50;2.25;;;0.50;;
41446;SDS011;27185;52.040;4.490;2023-08-31T14:55:36;4.50;;;0.60;;
41446;SDS011;27185;52.040;4.490;2023-08-31T14:58:22;1.38;;;0.45;;
41446;SDS011;27185;52.040;4.490;2023-08-31T15:01:08;1.92;;;0.50;;
41446;SDS011;27185;52.040;4.490;2023-08-31T15:03:53;3.30;;;0.60;;
41446;SDS011;27185;52.040;4.490;2023-08-31T15:06:39;1.95;;;0.50;;
41446;SDS011;27185;52.040;4.490;2023-08-31T15:09:25;2.55;;;0.50;;
41446;SDS011;27185;52.040;4.490;2023-08-31T15:12:11;2.67;;;0.60;;
41446;SDS011;27185;52.040;4.490;2023-08-31T15:14:56;1.85;;;0.50;;
41446;SDS011;27185;52.040;4.490;2023-08-31T15:17:42;3.17;;;0.60;;
41446;SDS011;27185;52.040;4.490;2023-08-31T15:20:28;4.07;;;0.70;;
41446;SDS011;27185;52.040;4.490;2023-08-31T15:23:15;2.75;;;0.65;;
41446;SDS011;27185;52.040;4.490;2023-08-31T15:26:01;3.00;;;0.60;;
41446;SDS011;27185;52.040;4.490;2023-08-31T15:28:47;1.60;;;0.50;;
41446;SDS011;27185;52.040;4.490;2023-08-31T15:31:33;2.30;;;0.52;;
41446;SDS011;27185;52.040;4.490;2023-08-31T15:34:18;2.38;;;0.50;;
41446;SDS011;27185;52.040;4.490;2023-08-31T15:37:04;3.10;;;0.55;;
41446;SDS011;27185;52.040;4.490;2023-08-31T15:39:50;4.25;;;0.40;;
41446;SDS011;27185;52.040;4.490;2023-08-31T15:42:36;2.15;;;0.50;;
41446;SDS011;27185;52.040;4.490;2023-08-31T15:45:21;2.35;;;0.73;;
41446;SDS011;27185;52.040;4.490;2023-08-31T15:48:08;3.17;;;0.90;;
41446;SDS011;27185;52.040;4.490;2023-08-31T15:50:55;2.25;;;0.70;;
41446;SDS011;27185;52.040;4.490;2023-08-31T15:53:42;3.72;;;0.75;;
41446;SDS011;27185;52.040;4.490;2023-08-31T15:56:28;2.83;;;0.70;;
41446;SDS011;27185;52.040;4.490;2023-08-31T15:59:13;3.05;;;0.70;;
41446;SDS011;27185;52.040;4.490;2023-08-31T16:01:59;3.90;;;0.65;;
41446;SDS011;27185;52.040;4.490;2023-08-31T16:04:44;3.47;;;0.98;;
41446;SDS011;27185;52.040;4.490;2023-08-31T16:07:33;2.63;;;0.70;;
41446;SDS011;27185;52.040;4.490;2023-08-31T16:10:20;3.97;;;0.60;;
41446;SDS011;27185;52.040;4.490;2023-08-31T16:13:05;4.18;;;0.85;;
41446;SDS011;27185;52.040;4.490;2023-08-31T16:15:51;8.98;;;0.93;;
41446;SDS011;27185;52.040;4.490;2023-08-31T16:18:36;3.83;;;0.60;;
41446;SDS011;27185;52.040;4.490;2023-08-31T16:21:22;3.25;;;0.50;;
41446;SDS011;27185;52.040;4.490;2023-08-31T16:24:09;2.58;;;0.63;;
41446;SDS011;27185;52.040;4.490;2023-08-31T16:26:54;3.47;;;0.60;;
41446;SDS011;27185;52.040;4.490;2023-08-31T16:29:40;3.50;;;0.70;;
41446;SDS011;27185;52.040;4.490;2023-08-31T16:32:25;3.20;;;0.80;;
41446;SDS011;27185;52.040;4.490;2023-08-31T16:35:12;3.60;;;0.50;;
41446;SDS011;27185;52.040;4.490;2023-08-31T16:37:59;2.80;;;0.60;;
41446;SDS011;27185;52.040;4.490;2023-08-31T16:40:44;2.67;;;0.40;;
41446;SDS011;27185;52.040;4.490;2023-08-31T16:43:30;2.72;;;0.50;;
41446;SDS011;27185;52.040;4.490;2023-08-31T16:46:16;3.60;;;0.50;;
41446;SDS011;27185;52.040;4.490;2023-08-31T16:49:02;2.67;;;0.50;;
41446;SDS011;27185;52.040;4.490;2023-08-31T16:51:47;2.80;;;0.50;;
41446;SDS011;27185;52.040;4.490;2023-08-31T16:54:33;1.92;;;0.52;;
41446;SDS011;27185;52.040;4.490;2023-08-31T16:57:19;2.92;;;0.40;;
41446;SDS011;27185;52.040;4.490;2023-08-31T17:00:06;4.03;;;0.60;;
41446;SDS011;27185;52.040;4.490;2023-08-31T17:02:55;3.13;;;0.60;;
41446;SDS011;27185;52.040;4.490;2023-08-31T17:05:40;3.28;;;0.50;;